createdAt,value
2019-02-17T00:04:11.484Z,7.20
2019-02-17T00:09:17.307Z,7.97
2019-02-17T00:14:24.019Z,7.87
2019-02-17T00:19:29.705Z,9.40
2019-02-17T00:24:35.156Z,7.87
2019-02-17T00:29:40.684Z,6.83
2019-02-17T00:34:46.164Z,7.23
2019-02-17T00:39:52.114Z,7.73
2019-02-17T00:44:57.624Z,6.27
2019-02-17T00:50:03.110Z,7.13
2019-02-17T00:55:08.842Z,7.33
2019-02-17T01:00:14.617Z,7.40
2019-02-17T01:05:20.133Z,6.80
2019-02-17T01:10:26.453Z,5.90
2019-02-17T01:15:31.948Z,6.30
2019-02-17T01:20:37.473Z,6.67
2019-02-17T01:25:42.988Z,6.70
2019-02-17T01:30:48.446Z,4.87
2019-02-17T01:35:53.937Z,5.43
2019-02-17T01:40:59.467Z,4.90
2019-02-17T01:46:05.084Z,5.97
2019-02-17T01:51:10.642Z,4.63
2019-02-17T01:56:16.007Z,4.60
2019-02-17T02:01:21.510Z,5.27
2019-02-17T02:06:27.048Z,5.37
2019-02-17T02:11:32.707Z,5.08
2019-02-17T02:16:39.144Z,5.23
2019-02-17T02:21:44.591Z,5.43
2019-02-17T02:26:50.294Z,5.83
2019-02-17T02:31:55.648Z,4.87
2019-02-17T02:37:01.086Z,6.23
2019-02-17T02:42:06.707Z,5.10
2019-02-17T02:47:12.225Z,5.73
2019-02-17T02:52:17.609Z,5.00
2019-02-17T02:57:22.978Z,4.73
2019-02-17T03:02:28.438Z,5.27
2019-02-17T03:07:33.904Z,5.55
2019-02-17T03:12:39.334Z,6.43
2019-02-17T03:17:44.810Z,3.53
2019-02-17T03:22:51.121Z,5.53
2019-02-17T03:27:56.615Z,4.20
2019-02-17T03:33:02.075Z,4.23
2019-02-17T03:38:07.578Z,5.73
2019-02-17T03:43:13.529Z,5.23
2019-02-17T03:48:18.980Z,4.23
2019-02-17T03:53:24.372Z,5.83
2019-02-17T03:58:29.964Z,6.03
2019-02-17T04:03:35.287Z,5.00
2019-02-17T04:08:40.829Z,6.90
2019-02-17T04:13:46.150Z,5.12
2019-02-17T04:18:51.725Z,4.37
2019-02-17T04:23:57.279Z,5.77
2019-02-17T04:29:02.864Z,4.53
2019-02-17T04:34:08.306Z,4.77
2019-02-17T04:39:13.842Z,5.23
2019-02-17T04:44:19.268Z,5.60
2019-02-17T04:49:24.752Z,6.30
2019-02-17T04:54:30.194Z,4.83
2019-02-17T04:59:35.590Z,4.67
2019-02-17T05:04:41.070Z,4.83
2019-02-17T05:09:46.496Z,4.60
2019-02-17T05:14:51.922Z,4.83
2019-02-17T05:19:57.385Z,4.90
2019-02-17T05:25:02.936Z,5.37
2019-02-17T05:30:09.740Z,5.47
2019-02-17T05:35:16.003Z,5.37
2019-02-17T05:40:21.504Z,5.63
2019-02-17T05:45:26.842Z,6.63
2019-02-17T05:50:32.278Z,6.37
2019-02-17T05:55:37.636Z,6.53
2019-02-17T06:00:43.257Z,5.70
2019-02-17T06:05:48.627Z,6.63
2019-02-17T06:10:54.215Z,5.13
2019-02-17T06:15:59.682Z,5.30
2019-02-17T06:21:05.158Z,4.60
2019-02-17T06:26:10.605Z,5.03
2019-02-17T06:31:18.519Z,5.27
2019-02-17T06:36:24.841Z,5.17
2019-02-17T06:41:30.387Z,5.03
2019-02-17T06:46:40.711Z,4.40
2019-02-17T06:51:46.162Z,5.07
2019-02-17T06:56:55.156Z,5.23
2019-02-17T07:02:00.550Z,7.23
2019-02-17T07:07:07.614Z,5.23
2019-02-17T07:12:13.031Z,4.33
2019-02-17T07:17:18.466Z,5.30
2019-02-17T07:22:23.831Z,5.33
2019-02-17T07:27:29.330Z,5.47
2019-02-17T07:32:34.729Z,5.57
2019-02-17T07:37:40.221Z,4.75
2019-02-17T07:42:45.780Z,4.60
2019-02-17T07:47:51.217Z,4.80
2019-02-17T07:52:56.586Z,4.57
2019-02-17T07:58:02.171Z,3.73
2019-02-17T08:03:07.578Z,4.77
2019-02-17T08:08:13.085Z,3.00
2019-02-17T08:13:18.711Z,2.60
2019-02-17T08:18:25.271Z,2.80
2019-02-17T08:23:30.804Z,2.40
2019-02-17T08:28:36.424Z,2.77
2019-02-17T08:33:41.912Z,1.83
2019-02-17T08:38:47.386Z,2.57
2019-02-17T08:43:52.801Z,3.17
2019-02-17T08:48:58.304Z,3.23
2019-02-17T08:54:03.783Z,2.80
2019-02-17T08:59:09.424Z,3.60
2019-02-17T09:04:14.780Z,2.17
2019-02-17T09:09:20.344Z,1.87
2019-02-17T09:14:25.665Z,2.33
2019-02-17T09:19:31.210Z,2.95
2019-02-17T09:24:36.825Z,3.33
2019-02-17T09:29:42.402Z,3.33
2019-02-17T09:34:47.857Z,1.73
2019-02-17T09:39:53.585Z,2.33
2019-02-17T09:44:58.948Z,3.23
2019-02-17T09:50:04.512Z,2.17
2019-02-17T09:55:10.458Z,2.37
2019-02-17T10:00:16.219Z,2.63
2019-02-17T10:05:21.588Z,3.07
2019-02-17T10:10:27.204Z,2.37
2019-02-17T10:15:32.596Z,2.58
2019-02-17T10:20:38.133Z,2.95
2019-02-17T10:25:43.554Z,2.13
2019-02-17T10:30:49.288Z,2.93
2019-02-17T10:35:54.874Z,1.53
2019-02-17T10:41:00.404Z,1.65
2019-02-17T10:46:06.164Z,1.97
2019-02-17T10:51:11.734Z,2.40
2019-02-17T10:56:17.150Z,2.03
2019-02-17T11:01:22.703Z,1.67
2019-02-17T11:06:28.058Z,2.60
2019-02-17T11:11:33.600Z,2.42
2019-02-17T11:16:39.095Z,2.47
2019-02-17T11:21:44.796Z,2.43
2019-02-17T11:26:50.193Z,2.37
2019-02-17T11:31:55.644Z,1.53
2019-02-17T11:37:01.099Z,2.17
2019-02-17T11:42:06.639Z,2.03
2019-02-17T11:47:12.048Z,2.13
2019-02-17T11:52:17.748Z,2.08
2019-02-17T11:57:23.160Z,2.40
2019-02-17T12:02:28.616Z,2.97
2019-02-17T12:07:34.024Z,1.93
2019-02-17T12:12:40.157Z,3.30
2019-02-17T12:17:46.739Z,2.40
2019-02-17T12:22:58.247Z,3.40
2019-02-17T12:28:07.476Z,3.67
2019-02-17T12:33:19.280Z,2.43
2019-02-17T12:38:20.017Z,2.37
2019-02-17T12:43:25.555Z,2.70
2019-02-17T12:48:31.022Z,2.23
2019-02-17T12:53:36.423Z,2.70
2019-02-17T12:58:42.001Z,3.10
2019-02-17T13:03:48.089Z,3.00
2019-02-17T13:08:53.558Z,2.60
2019-02-17T13:13:59.083Z,1.77
2019-02-17T13:19:04.629Z,2.00
2019-02-17T13:24:10.025Z,2.40
2019-02-17T13:29:15.571Z,2.33
2019-02-17T13:34:20.979Z,3.40
2019-02-17T13:39:26.446Z,2.47
2019-02-17T13:44:31.994Z,2.80
2019-02-17T13:49:37.539Z,3.02
2019-02-17T13:54:43.020Z,3.13
2019-02-17T13:59:48.723Z,2.33
2019-02-17T14:04:54.056Z,3.00
2019-02-17T14:09:59.570Z,2.17
2019-02-17T14:15:05.746Z,2.33
2019-02-17T14:20:13.853Z,2.37
2019-02-17T14:25:19.825Z,2.67
2019-02-17T14:30:25.295Z,2.53
2019-02-17T14:35:30.771Z,2.40
2019-02-17T14:40:36.398Z,3.50
2019-02-17T14:45:41.920Z,2.83
2019-02-17T14:50:53.525Z,2.40
2019-02-17T14:55:58.974Z,2.67
2019-02-17T15:01:04.593Z,2.47
2019-02-17T15:06:10.175Z,3.10
2019-02-17T15:11:15.848Z,2.57
2019-02-17T15:16:21.618Z,2.23
2019-02-17T15:21:27.157Z,2.80
2019-02-17T15:26:32.782Z,3.83
2019-02-17T15:31:38.280Z,1.82
2019-02-17T15:36:46.244Z,2.90
2019-02-17T15:41:51.715Z,3.67
2019-02-17T15:46:57.215Z,3.57
2019-02-17T15:52:02.692Z,2.43
2019-02-17T15:57:08.292Z,2.57
2019-02-17T16:02:13.945Z,2.20
2019-02-17T16:07:19.485Z,2.93
2019-02-17T16:12:26.261Z,3.02
2019-02-17T16:17:31.827Z,2.90
2019-02-17T16:22:37.324Z,4.13
2019-02-17T16:27:42.902Z,3.22
2019-02-17T16:32:50.998Z,2.80
2019-02-17T16:37:58.572Z,2.70
2019-02-17T16:43:04.111Z,4.13
2019-02-17T16:48:09.864Z,2.67
2019-02-17T16:53:15.344Z,4.40
2019-02-17T16:58:20.819Z,3.30
2019-02-17T17:03:26.618Z,2.80
2019-02-17T17:08:34.775Z,2.20
2019-02-17T17:13:40.415Z,3.37
2019-02-17T17:18:45.800Z,2.33
2019-02-17T17:23:51.245Z,3.07
2019-02-17T17:28:56.655Z,2.43
2019-02-17T17:34:02.197Z,2.77
2019-02-17T17:39:08.439Z,2.43
2019-02-17T17:44:14.007Z,4.03
2019-02-17T17:49:19.662Z,3.40
2019-02-17T17:54:25.582Z,2.57
2019-02-17T17:59:31.092Z,2.07
2019-02-17T18:04:36.573Z,3.53
2019-02-17T18:09:42.205Z,2.53
2019-02-17T18:14:47.667Z,3.53
2019-02-17T18:19:53.148Z,3.10
2019-02-17T18:24:58.652Z,3.00
2019-02-17T18:30:05.015Z,2.93
2019-02-17T18:35:19.239Z,2.07
2019-02-17T18:40:18.433Z,2.83
2019-02-17T18:45:23.855Z,2.90
2019-02-17T18:50:29.307Z,2.17
2019-02-17T18:55:34.858Z,2.60
2019-02-17T19:00:40.557Z,2.63
2019-02-17T19:05:46.093Z,2.47
2019-02-17T19:10:51.667Z,1.70
2019-02-17T19:15:57.209Z,3.57
2019-02-17T19:21:02.665Z,3.30
2019-02-17T19:26:08.227Z,3.30
2019-02-17T19:31:13.690Z,2.43
2019-02-17T19:36:19.185Z,3.07
2019-02-17T19:41:24.653Z,1.83
2019-02-17T19:46:30.142Z,3.13
2019-02-17T19:51:35.631Z,3.67
2019-02-17T19:56:41.124Z,3.60
2019-02-17T20:01:46.556Z,3.60
2019-02-17T20:06:53.392Z,2.63
2019-02-17T20:11:58.871Z,4.03
2019-02-17T20:17:04.388Z,2.92
2019-02-17T20:22:09.726Z,2.83
2019-02-17T20:27:15.343Z,2.80
2019-02-17T20:32:20.710Z,2.63
2019-02-17T20:37:26.641Z,2.10
2019-02-17T20:42:32.145Z,1.77
2019-02-17T20:47:37.857Z,2.52
2019-02-17T20:52:43.178Z,2.15
2019-02-17T20:57:48.754Z,2.00
2019-02-17T21:02:54.241Z,3.13
2019-02-17T21:07:59.779Z,1.97
2019-02-17T21:13:05.161Z,2.20
2019-02-17T21:18:10.859Z,2.30
2019-02-17T21:23:16.476Z,2.30
2019-02-17T21:28:21.973Z,2.43
2019-02-17T21:33:27.471Z,2.77
2019-02-17T21:38:33.146Z,2.33
2019-02-17T21:43:38.587Z,2.02
2019-02-17T21:48:44.124Z,2.13
2019-02-17T21:53:49.666Z,3.80
2019-02-17T21:58:55.048Z,2.47
2019-02-17T22:04:00.482Z,2.80
2019-02-17T22:09:08.482Z,2.30
2019-02-17T22:14:13.978Z,2.40
2019-02-17T22:19:19.629Z,2.30
2019-02-17T22:24:26.075Z,2.77
2019-02-17T22:29:31.485Z,2.65
2019-02-17T22:34:36.940Z,2.40
2019-02-17T22:39:42.430Z,2.33
2019-02-17T22:44:47.949Z,2.30
2019-02-17T22:49:53.596Z,2.37
2019-02-17T22:54:59.137Z,1.53
2019-02-17T23:00:06.576Z,2.20
2019-02-17T23:05:12.104Z,2.87
2019-02-17T23:10:17.603Z,2.10
2019-02-17T23:15:23.065Z,2.00
2019-02-17T23:20:28.618Z,2.57
2019-02-17T23:25:34.116Z,2.70
2019-02-17T23:30:39.530Z,2.40
2019-02-17T23:35:45.083Z,3.00
2019-02-17T23:40:50.593Z,2.53
2019-02-17T23:45:55.938Z,2.33
2019-02-17T23:51:01.431Z,1.57
2019-02-17T23:56:09.935Z,1.73
